Terminal Aerodrome Forecast
Issued by NWS

Home | Current Version | Previous Version | Text Only | Print | Product List | Glossary On
Versions: 1 2 3 4 5 6 7 8 9 10 11 12 13 14
000
FTUS42 KTBW 281100
TAFPGD
TAF
KPGD 281129Z 2812/2912 27005KT P6SM VCSH FEW025 SCT250
     FM281500 27012KT P6SM VCTS SCT035CB SCT250
     FM282000 27010KT P6SM SCT040 SCT250=

USA.gov is the U.S. government's official web portal to all federal, state and local government web resources and services.